createdAt,value
2023-12-18T00:00:01.197Z,100.00
2023-12-18T00:02:29.532Z,100.00
2023-12-18T00:04:57.844Z,100.00
2023-12-18T00:07:28.053Z,100.00
2023-12-18T00:09:56.543Z,100.00
2023-12-18T00:12:24.732Z,100.00
2023-12-18T00:14:53.476Z,100.00
2023-12-18T00:17:21.671Z,100.00
2023-12-18T00:19:49.978Z,100.00
2023-12-18T00:22:18.340Z,100.00
2023-12-18T00:24:48.234Z,100.00
2023-12-18T00:27:16.538Z,100.00
2023-12-18T00:29:44.765Z,100.00
2023-12-18T00:32:13.068Z,100.00
2023-12-18T00:34:42.352Z,100.00
2023-12-18T00:37:10.971Z,100.00
2023-12-18T00:39:39.321Z,100.00
2023-12-18T00:42:09.093Z,100.00
2023-12-18T00:44:37.393Z,100.00
2023-12-18T00:47:05.941Z,100.00
2023-12-18T00:49:34.440Z,100.00
2023-12-18T00:52:02.784Z,100.00
2023-12-18T00:54:31.039Z,100.00
2023-12-18T00:56:59.198Z,100.00
2023-12-18T00:59:28.988Z,100.00
2023-12-18T01:01:57.203Z,100.00
2023-12-18T01:04:25.754Z,100.00
2023-12-18T01:06:54.019Z,100.00
2023-12-18T01:09:22.277Z,100.00
2023-12-18T01:11:50.984Z,100.00
2023-12-18T01:14:19.295Z,100.00
2023-12-18T01:16:48.924Z,100.00
2023-12-18T01:19:17.170Z,100.00
2023-12-18T01:21:45.445Z,100.00
2023-12-18T01:24:13.685Z,100.00
2023-12-18T01:26:41.973Z,100.00
2023-12-18T01:29:10.220Z,100.00
2023-12-18T01:31:38.732Z,100.00
2023-12-18T01:34:08.550Z,100.00
2023-12-18T01:36:36.909Z,100.00
2023-12-18T01:39:05.237Z,100.00
2023-12-18T01:41:33.573Z,100.00
2023-12-18T01:44:01.761Z,100.00
2023-12-18T01:46:30.289Z,100.00
2023-12-18T01:48:58.637Z,100.00
2023-12-18T01:51:28.601Z,100.00
2023-12-18T01:53:57.127Z,100.00
2023-12-18T01:56:27.665Z,100.00
2023-12-18T01:58:56.047Z,100.00
2023-12-18T02:01:24.309Z,100.00
2023-12-18T02:03:52.683Z,100.00
2023-12-18T02:06:20.942Z,100.00
2023-12-18T02:08:50.461Z,100.00
2023-12-18T02:11:18.658Z,100.00
2023-12-18T02:13:46.952Z,100.00
2023-12-18T02:16:15.134Z,100.00
2023-12-18T02:18:46.668Z,100.00
2023-12-18T02:21:20.151Z,100.00
2023-12-18T02:23:49.876Z,100.00
2023-12-18T02:26:18.270Z,100.00
2023-12-18T02:28:46.842Z,100.00
2023-12-18T02:31:15.485Z,100.00
2023-12-18T02:33:49.962Z,100.00
2023-12-18T02:36:19.093Z,100.00
2023-12-18T02:38:47.350Z,100.00
2023-12-18T02:41:17.273Z,100.00
2023-12-18T02:43:45.474Z,100.00
2023-12-18T02:46:13.701Z,100.00
2023-12-18T02:48:42.065Z,100.00
2023-12-18T02:51:10.381Z,100.00
2023-12-18T02:53:38.608Z,100.00
2023-12-18T02:56:07.638Z,100.00
2023-12-18T02:58:37.255Z,100.00
2023-12-18T03:01:05.801Z,100.00
2023-12-18T03:03:34.163Z,100.00
2023-12-18T03:06:02.903Z,100.00
2023-12-18T03:08:31.454Z,100.00
2023-12-18T03:10:59.666Z,100.00
2023-12-18T03:13:27.886Z,100.00
2023-12-18T03:15:58.273Z,100.00
2023-12-18T03:18:26.735Z,100.00
2023-12-18T03:20:55.104Z,100.00
2023-12-18T03:23:23.302Z,100.00
2023-12-18T03:25:51.617Z,100.00
2023-12-18T03:28:19.997Z,100.00
2023-12-18T03:30:48.270Z,100.00
2023-12-18T03:33:18.198Z,100.00
2023-12-18T03:35:46.837Z,100.00
2023-12-18T03:38:15.030Z,100.00
2023-12-18T03:40:43.455Z,100.00
2023-12-18T03:43:11.680Z,100.00
2023-12-18T03:45:40.249Z,100.00
2023-12-18T03:48:09.472Z,100.00
2023-12-18T03:50:39.155Z,100.00
2023-12-18T03:53:09.776Z,100.00
2023-12-18T03:55:38.114Z,100.00
2023-12-18T03:58:06.611Z,100.00
2023-12-18T04:00:36.137Z,100.00
2023-12-18T04:03:05.516Z,100.00
2023-12-18T04:05:33.921Z,100.00
2023-12-18T04:08:03.684Z,100.00
2023-12-18T04:10:32.218Z,100.00
2023-12-18T04:13:00.416Z,100.00
2023-12-18T04:15:29.458Z,100.00
2023-12-18T04:17:59.129Z,100.00
2023-12-18T04:20:27.389Z,100.00
2023-12-18T04:22:55.583Z,100.00
2023-12-18T04:25:25.957Z,100.00
2023-12-18T04:27:54.716Z,100.00
2023-12-18T04:30:23.439Z,100.00
2023-12-18T04:32:51.720Z,100.00
2023-12-18T04:35:19.958Z,100.00
2023-12-18T04:37:48.185Z,100.00
2023-12-18T04:40:16.727Z,100.00
2023-12-18T04:42:46.628Z,100.00
2023-12-18T04:45:15.465Z,100.00
2023-12-18T04:47:43.854Z,100.00
2023-12-18T04:50:12.362Z,100.00
2023-12-18T04:52:40.808Z,100.00
2023-12-18T04:55:10.136Z,100.00
2023-12-18T04:57:39.494Z,100.00
2023-12-18T05:00:10.543Z,100.00
2023-12-18T05:02:39.294Z,100.00
2023-12-18T05:05:07.901Z,100.00
2023-12-18T05:07:36.119Z,100.00
2023-12-18T05:10:04.460Z,100.00
2023-12-18T05:12:32.965Z,100.00
2023-12-18T05:15:03.785Z,100.00
2023-12-18T05:17:34.418Z,100.00
2023-12-18T05:20:02.802Z,100.00
2023-12-18T05:22:30.978Z,100.00
2023-12-18T05:24:59.437Z,100.00
2023-12-18T05:27:27.630Z,100.00
2023-12-18T05:29:55.912Z,100.00
2023-12-18T05:32:24.307Z,100.00
2023-12-18T05:34:54.086Z,100.00
2023-12-18T05:37:23.365Z,100.00
2023-12-18T05:39:50.879Z,100.00
2023-12-18T05:42:20.673Z,100.00
2023-12-18T05:44:48.996Z,100.00
2023-12-18T05:47:17.202Z,100.00
2023-12-18T05:49:45.570Z,100.00
2023-12-18T05:52:15.317Z,100.00
2023-12-18T05:54:43.670Z,100.00
2023-12-18T05:57:13.594Z,100.00
2023-12-18T05:59:41.811Z,100.00
2023-12-18T06:02:10.025Z,100.00
2023-12-18T06:04:39.854Z,100.00
2023-12-18T06:07:08.141Z,100.00
2023-12-18T06:09:37.879Z,100.00
2023-12-18T06:12:07.144Z,100.00
2023-12-18T06:14:35.320Z,100.00
2023-12-18T06:17:03.499Z,100.00
2023-12-18T06:19:32.182Z,100.00
2023-12-18T06:22:00.803Z,100.00
2023-12-18T06:24:29.024Z,100.00
2023-12-18T06:26:58.621Z,100.00
2023-12-18T06:29:28.312Z,100.00
2023-12-18T06:31:56.725Z,100.00
2023-12-18T06:34:25.120Z,100.00
2023-12-18T06:36:53.374Z,100.00
2023-12-18T06:39:21.737Z,100.00
2023-12-18T06:41:49.971Z,100.00
2023-12-18T06:44:19.601Z,100.00
2023-12-18T06:46:47.817Z,100.00
2023-12-18T06:49:16.116Z,100.00
2023-12-18T06:51:45.575Z,100.00
2023-12-18T06:54:13.874Z,100.00
2023-12-18T06:56:42.108Z,100.00
2023-12-18T06:59:10.360Z,100.00
2023-12-18T07:01:40.503Z,100.00
2023-12-18T07:04:08.882Z,100.00
2023-12-18T07:06:37.194Z,100.00
2023-12-18T07:09:05.560Z,100.00
2023-12-18T07:11:33.867Z,100.00
2023-12-18T07:14:02.083Z,100.00
2023-12-18T07:16:30.333Z,100.00
2023-12-18T07:19:00.044Z,100.00
2023-12-18T07:21:28.393Z,100.00
2023-12-18T07:23:56.604Z,100.00
2023-12-18T07:26:24.818Z,100.00
2023-12-18T07:28:52.990Z,100.00
2023-12-18T07:31:21.277Z,100.00
2023-12-18T07:33:49.596Z,100.00
2023-12-18T07:36:19.433Z,100.00
2023-12-18T07:38:48.177Z,100.00
2023-12-18T07:41:16.501Z,100.00
2023-12-18T07:43:44.972Z,100.00
2023-12-18T07:46:19.973Z,100.00
2023-12-18T07:48:49.077Z,100.00
2023-12-18T07:51:17.558Z,100.00
2023-12-18T07:53:47.151Z,100.00
2023-12-18T07:56:15.478Z,100.00
2023-12-18T07:58:43.711Z,100.00
2023-12-18T08:01:12.071Z,100.00
2023-12-18T08:03:40.437Z,100.00
2023-12-18T08:06:08.744Z,100.00
2023-12-18T08:08:36.989Z,100.00
2023-12-18T08:11:07.341Z,100.00
2023-12-18T08:13:39.702Z,100.00
2023-12-18T08:16:08.670Z,100.00
2023-12-18T08:18:37.066Z,100.00
2023-12-18T08:21:06.077Z,100.00
2023-12-18T08:23:34.439Z,100.00
2023-12-18T08:26:02.668Z,100.00
2023-12-18T08:28:32.244Z,100.00
2023-12-18T08:31:00.564Z,100.00
2023-12-18T08:33:29.054Z,100.00
2023-12-18T08:35:57.321Z,100.00
2023-12-18T08:38:25.543Z,100.00
2023-12-18T08:40:55.050Z,100.00
2023-12-18T08:43:23.216Z,100.00
2023-12-18T08:45:52.863Z,100.00
2023-12-18T08:48:21.377Z,100.00
2023-12-18T08:50:49.943Z,100.00
2023-12-18T08:53:18.213Z,100.00
2023-12-18T08:55:46.465Z,100.00
2023-12-18T08:58:14.708Z,100.00
2023-12-18T09:00:43.130Z,100.00
2023-12-18T09:03:12.915Z,100.00
2023-12-18T09:05:43.409Z,100.00
2023-12-18T09:08:14.920Z,100.00
2023-12-18T09:10:43.366Z,100.00
2023-12-18T09:13:11.860Z,100.00
2023-12-18T09:15:41.741Z,100.00
2023-12-18T09:18:10.186Z,100.00
2023-12-18T09:20:39.984Z,100.00
2023-12-18T09:23:09.780Z,100.00
2023-12-18T09:25:38.134Z,100.00
2023-12-18T09:28:06.774Z,100.00
2023-12-18T09:30:35.105Z,100.00
2023-12-18T09:33:03.746Z,100.00
2023-12-18T09:35:32.052Z,100.00
2023-12-18T09:38:01.625Z,100.00
2023-12-18T09:40:29.897Z,100.00
2023-12-18T09:42:58.096Z,100.00
2023-12-18T09:45:26.985Z,100.00
2023-12-18T09:47:55.605Z,100.00
2023-12-18T09:50:23.998Z,100.00
2023-12-18T09:53:04.094Z,100.00
2023-12-18T09:55:32.770Z,100.00
2023-12-18T09:58:01.749Z,100.00
2023-12-18T10:00:30.301Z,100.00
2023-12-18T10:02:59.077Z,100.00
2023-12-18T10:05:27.765Z,100.00
2023-12-18T10:07:56.239Z,98.47
2023-12-18T10:10:25.967Z,97.61
2023-12-18T10:12:54.380Z,100.00
2023-12-18T10:15:25.596Z,96.29
2023-12-18T10:17:54.049Z,97.04
2023-12-18T10:20:22.209Z,95.55
2023-12-18T10:22:50.579Z,93.80
2023-12-18T10:25:18.860Z,96.33
2023-12-18T10:27:49.599Z,95.31
2023-12-18T10:30:19.269Z,93.91
2023-12-18T10:32:48.768Z,94.03
2023-12-18T10:35:17.098Z,94.02
2023-12-18T10:37:46.728Z,94.42
2023-12-18T10:40:15.092Z,94.38
2023-12-18T10:42:46.826Z,95.43
2023-12-18T10:45:17.752Z,94.55
2023-12-18T10:47:45.996Z,95.28
2023-12-18T10:50:14.228Z,96.44
2023-12-18T10:52:43.843Z,95.14
2023-12-18T10:55:12.875Z,95.56
2023-12-18T10:57:42.475Z,93.29
2023-12-18T11:00:11.985Z,93.94
2023-12-18T11:02:41.590Z,93.53
2023-12-18T11:05:09.991Z,93.10
2023-12-18T11:07:38.279Z,91.65
2023-12-18T11:10:07.676Z,93.21
2023-12-18T11:12:35.975Z,92.17
2023-12-18T11:15:07.240Z,91.13
2023-12-18T11:17:42.418Z,93.24
2023-12-18T11:20:13.127Z,91.28
2023-12-18T11:22:42.250Z,90.72
2023-12-18T11:25:11.082Z,91.74
2023-12-18T11:27:40.762Z,93.09
2023-12-18T11:30:26.038Z,91.03
2023-12-18T11:32:55.881Z,91.71
2023-12-18T11:35:29.764Z,91.27
2023-12-18T11:38:04.517Z,90.48
2023-12-18T11:40:41.334Z,90.00
2023-12-18T11:43:10.124Z,89.58
2023-12-18T11:45:39.874Z,89.29
2023-12-18T11:48:10.324Z,90.15
2023-12-18T11:50:39.642Z,88.91
2023-12-18T11:53:21.818Z,86.69
2023-12-18T11:55:51.469Z,86.79
2023-12-18T11:58:20.729Z,86.89
2023-12-18T12:00:49.637Z,86.37
2023-12-18T12:03:19.454Z,85.25
2023-12-18T12:05:48.060Z,86.53
2023-12-18T12:08:16.366Z,85.99
2023-12-18T12:10:44.739Z,88.54
2023-12-18T12:13:19.422Z,87.95
2023-12-18T12:15:57.746Z,86.18
2023-12-18T12:18:28.634Z,87.00
2023-12-18T12:20:56.940Z,89.11
2023-12-18T12:23:25.422Z,87.31
2023-12-18T12:25:53.786Z,87.59
2023-12-18T12:28:22.570Z,87.56
2023-12-18T12:30:50.943Z,88.17
2023-12-18T12:33:19.425Z,87.23
2023-12-18T12:35:49.216Z,88.36
2023-12-18T12:38:18.495Z,87.18
2023-12-18T12:40:47.276Z,88.78
2023-12-18T12:43:16.468Z,88.87
2023-12-18T12:45:44.774Z,88.30
2023-12-18T12:48:14.087Z,88.20
2023-12-18T12:50:43.208Z,86.78
2023-12-18T12:53:12.941Z,85.98
2023-12-18T12:55:41.929Z,86.87
2023-12-18T12:58:10.526Z,85.20
2023-12-18T13:00:39.020Z,84.33
2023-12-18T13:03:07.275Z,85.13
2023-12-18T13:05:35.534Z,85.42
2023-12-18T13:08:03.952Z,86.10
2023-12-18T13:10:33.891Z,84.25
2023-12-18T13:13:02.159Z,82.93
2023-12-18T13:15:30.496Z,83.58
2023-12-18T13:17:58.981Z,83.97
2023-12-18T13:20:29.232Z,84.33
2023-12-18T13:22:58.230Z,85.11
2023-12-18T13:25:26.417Z,86.39
2023-12-18T13:27:56.178Z,85.18
2023-12-18T13:30:25.387Z,87.32
2023-12-18T13:32:53.861Z,85.28
2023-12-18T13:35:23.753Z,84.46
2023-12-18T13:37:52.043Z,83.18
2023-12-18T13:40:20.233Z,83.49
2023-12-18T13:42:48.832Z,83.79
2023-12-18T13:45:21.357Z,84.31
2023-12-18T13:47:50.866Z,84.43
2023-12-18T13:50:18.660Z,84.02
2023-12-18T13:52:49.899Z,83.86
2023-12-18T13:55:18.278Z,84.53
2023-12-18T13:57:49.103Z,83.22
2023-12-18T14:00:22.105Z,83.58
2023-12-18T14:02:52.357Z,82.36
2023-12-18T14:05:22.103Z,81.45
2023-12-18T14:07:50.455Z,81.50
2023-12-18T14:10:18.626Z,82.80
2023-12-18T14:12:47.189Z,81.90
2023-12-18T14:15:15.896Z,82.39
2023-12-18T14:17:45.634Z,83.18
2023-12-18T14:20:14.023Z,83.70
2023-12-18T14:22:42.535Z,83.09
2023-12-18T14:25:10.966Z,82.28
2023-12-18T14:27:39.281Z,82.67
2023-12-18T14:30:09.114Z,83.41
2023-12-18T14:32:37.351Z,83.28
2023-12-18T14:35:07.927Z,82.59
2023-12-18T14:37:36.192Z,83.41
2023-12-18T14:40:04.795Z,82.76
2023-12-18T14:42:33.052Z,82.87
2023-12-18T14:45:01.549Z,82.51
2023-12-18T14:47:30.086Z,82.72
2023-12-18T14:49:58.586Z,82.36
2023-12-18T14:52:28.346Z,81.20
2023-12-18T14:54:56.738Z,81.33
2023-12-18T14:57:25.095Z,82.15
2023-12-18T14:59:53.260Z,82.67
2023-12-18T15:02:21.618Z,82.22
2023-12-18T15:04:49.843Z,81.55
2023-12-18T15:07:18.443Z,81.74
2023-12-18T15:09:48.113Z,81.32
2023-12-18T15:12:16.837Z,81.39
2023-12-18T15:14:45.138Z,82.36
2023-12-18T15:17:13.331Z,81.34
2023-12-18T15:19:42.297Z,80.81
2023-12-18T15:22:11.443Z,81.32
2023-12-18T15:24:39.841Z,80.48
2023-12-18T15:27:10.046Z,80.88
2023-12-18T15:29:38.246Z,80.63
2023-12-18T15:32:08.236Z,81.77
2023-12-18T15:34:36.842Z,80.93
2023-12-18T15:37:05.534Z,81.73
2023-12-18T15:39:33.840Z,80.71
2023-12-18T15:42:02.188Z,81.48
2023-12-18T15:44:32.058Z,81.36
2023-12-18T15:47:02.271Z,80.71
2023-12-18T15:49:30.602Z,80.60
2023-12-18T15:51:58.904Z,79.84
2023-12-18T15:54:27.118Z,79.95
2023-12-18T15:56:55.336Z,80.50
2023-12-18T15:59:24.069Z,80.71
2023-12-18T16:01:53.700Z,80.05
2023-12-18T16:04:21.976Z,79.82
2023-12-18T16:06:50.274Z,80.08
2023-12-18T16:09:18.804Z,81.17
2023-12-18T16:11:48.806Z,81.22
2023-12-18T16:14:17.002Z,80.83
2023-12-18T16:16:45.209Z,80.21
2023-12-18T16:19:14.934Z,80.33
2023-12-18T16:21:45.510Z,81.43
2023-12-18T16:24:13.841Z,81.18
2023-12-18T16:26:42.299Z,80.21
2023-12-18T16:29:11.441Z,80.42
2023-12-18T16:31:39.822Z,79.21
2023-12-18T16:34:08.534Z,78.95
2023-12-18T16:36:38.204Z,79.02
2023-12-18T16:39:06.661Z,78.50
2023-12-18T16:41:37.906Z,78.80
2023-12-18T16:44:06.222Z,79.70
2023-12-18T16:46:40.458Z,80.17
2023-12-18T16:49:13.725Z,79.24
2023-12-18T16:51:43.533Z,78.44
2023-12-18T16:54:12.583Z,78.03
2023-12-18T16:56:40.852Z,79.59
2023-12-18T16:59:09.946Z,78.66
2023-12-18T17:01:38.165Z,78.08
2023-12-18T17:04:06.813Z,79.13
2023-12-18T17:06:35.193Z,78.78
2023-12-18T17:09:04.900Z,78.07
2023-12-18T17:11:33.434Z,79.32
2023-12-18T17:14:01.833Z,78.35
2023-12-18T17:16:30.311Z,78.15
2023-12-18T17:18:58.709Z,78.16
2023-12-18T17:21:27.017Z,79.29
2023-12-18T17:23:55.230Z,78.62
2023-12-18T17:26:24.830Z,78.24
2023-12-18T17:28:55.058Z,77.66
2023-12-18T17:31:23.863Z,76.37
2023-12-18T17:33:52.418Z,76.04
2023-12-18T17:36:20.779Z,75.81
2023-12-18T17:38:49.018Z,75.23
2023-12-18T17:41:17.319Z,74.03
2023-12-18T17:43:46.980Z,73.63
2023-12-18T17:46:15.177Z,73.51
2023-12-18T17:48:44.013Z,75.79
2023-12-18T17:51:12.472Z,75.56
2023-12-18T17:53:41.260Z,73.44
2023-12-18T17:56:09.489Z,73.80
2023-12-18T17:58:38.000Z,73.95
2023-12-18T18:01:07.709Z,73.66
2023-12-18T18:03:36.333Z,72.93
2023-12-18T18:06:04.968Z,72.41
2023-12-18T18:08:33.168Z,71.75
2023-12-18T18:11:01.373Z,72.94
2023-12-18T18:13:29.611Z,73.63
2023-12-18T18:15:58.074Z,74.53
2023-12-18T18:18:28.044Z,75.43
2023-12-18T18:20:56.263Z,76.00
2023-12-18T18:23:24.454Z,77.17
2023-12-18T18:25:52.651Z,76.40
2023-12-18T18:28:20.910Z,76.83
2023-12-18T18:30:50.525Z,76.76
2023-12-18T18:33:19.036Z,76.15
2023-12-18T18:35:48.868Z,76.29
2023-12-18T18:38:17.162Z,76.73
2023-12-18T18:40:45.385Z,76.85
2023-12-18T18:43:13.565Z,75.06
2023-12-18T18:45:41.799Z,75.23
2023-12-18T18:48:12.716Z,75.48
2023-12-18T18:50:42.132Z,74.53
2023-12-18T18:53:11.745Z,74.45
2023-12-18T18:55:40.233Z,75.39
2023-12-18T18:58:08.460Z,74.85
2023-12-18T19:00:36.771Z,74.60
2023-12-18T19:03:10.429Z,75.63
2023-12-18T19:05:44.745Z,75.85
2023-12-18T19:08:14.323Z,76.56
2023-12-18T19:10:42.718Z,76.55
2023-12-18T19:13:10.884Z,77.50
2023-12-18T19:15:39.171Z,79.87
2023-12-18T19:18:08.425Z,79.83
2023-12-18T19:20:36.752Z,78.64
2023-12-18T19:23:05.451Z,79.20
2023-12-18T19:25:35.068Z,78.30
2023-12-18T19:28:03.303Z,78.17
2023-12-18T19:30:31.631Z,77.42
2023-12-18T19:32:59.908Z,77.90
2023-12-18T19:35:28.271Z,77.98
2023-12-18T19:37:56.652Z,78.47
2023-12-18T19:40:24.850Z,77.42
2023-12-18T19:42:54.509Z,77.63
2023-12-18T19:45:22.807Z,76.92
2023-12-18T19:50:20.713Z,78.52
2023-12-18T19:52:49.035Z,76.97
2023-12-18T19:55:17.277Z,76.94
2023-12-18T19:57:46.631Z,76.58
2023-12-18T20:00:17.231Z,76.31
2023-12-18T20:02:46.557Z,76.89
2023-12-18T20:05:14.840Z,77.16
2023-12-18T20:07:43.047Z,77.79
2023-12-18T20:10:12.848Z,77.46
2023-12-18T20:12:41.380Z,74.96
2023-12-18T20:15:11.399Z,75.37
2023-12-18T20:17:41.039Z,76.56
2023-12-18T20:20:09.986Z,75.69
2023-12-18T20:22:38.249Z,74.25
2023-12-18T20:25:07.408Z,75.17
2023-12-18T20:27:35.699Z,75.13
2023-12-18T20:30:03.991Z,75.64
2023-12-18T20:32:34.856Z,75.51
2023-12-18T20:35:06.722Z,74.66
2023-12-18T20:37:35.012Z,75.36
2023-12-18T20:40:03.296Z,75.32
2023-12-18T20:42:32.052Z,74.48
2023-12-18T20:45:00.461Z,74.44
2023-12-18T20:47:28.688Z,73.59
2023-12-18T20:49:58.317Z,74.08
2023-12-18T20:52:28.082Z,73.31
2023-12-18T20:54:56.480Z,73.76
2023-12-18T20:57:24.824Z,75.22
2023-12-18T21:00:07.537Z,73.62
2023-12-18T21:02:41.691Z,73.29
2023-12-18T21:05:10.831Z,74.13
2023-12-18T21:07:40.398Z,75.03
2023-12-18T21:10:09.513Z,75.05
2023-12-18T21:12:37.747Z,75.17
2023-12-18T21:15:06.820Z,74.30
2023-12-18T21:17:35.225Z,74.40
2023-12-18T21:20:03.499Z,75.38
2023-12-18T21:22:31.855Z,73.67
2023-12-18T21:25:01.564Z,74.72
2023-12-18T21:27:29.870Z,74.53
2023-12-18T21:29:58.097Z,75.32
2023-12-18T21:32:26.401Z,75.67
2023-12-18T21:34:54.827Z,75.88
2023-12-18T21:37:23.191Z,75.69
2023-12-18T21:39:52.592Z,76.47
2023-12-18T21:42:22.463Z,75.30
2023-12-18T21:44:50.630Z,75.66
2023-12-18T21:47:18.876Z,76.27
2023-12-18T21:49:47.644Z,76.23
2023-12-18T21:52:16.387Z,76.88
2023-12-18T21:54:44.722Z,78.53
2023-12-18T21:57:14.374Z,76.90
2023-12-18T21:59:44.210Z,77.24
2023-12-18T22:02:12.420Z,76.72
2023-12-18T22:04:40.715Z,76.37
2023-12-18T22:07:09.091Z,75.97
2023-12-18T22:09:38.090Z,77.41
2023-12-18T22:12:07.683Z,76.40
2023-12-18T22:14:35.906Z,77.09
2023-12-18T22:17:05.862Z,77.18
2023-12-18T22:19:34.136Z,77.52
2023-12-18T22:22:04.197Z,77.14
2023-12-18T22:24:32.516Z,78.21
2023-12-18T22:27:02.825Z,76.49
2023-12-18T22:29:31.091Z,77.48
2023-12-18T22:32:01.453Z,77.32
2023-12-18T22:34:32.160Z,75.64
2023-12-18T22:37:00.560Z,76.03
2023-12-18T22:39:28.890Z,76.14
2023-12-18T22:41:57.101Z,77.79
2023-12-18T22:44:25.966Z,76.57
2023-12-18T22:46:54.217Z,75.21
2023-12-18T22:49:22.484Z,76.00
2023-12-18T22:51:52.794Z,75.57
2023-12-18T22:54:21.143Z,74.56
2023-12-18T22:56:49.382Z,74.10
2023-12-18T22:59:17.614Z,72.89
2023-12-18T23:01:46.206Z,74.56
2023-12-18T23:04:14.553Z,72.66
2023-12-18T23:06:42.910Z,73.82
2023-12-18T23:09:15.033Z,73.72
2023-12-18T23:11:43.314Z,71.57
2023-12-18T23:14:11.871Z,71.70
2023-12-18T23:16:40.124Z,71.92
2023-12-18T23:19:08.403Z,70.83
2023-12-18T23:21:40.966Z,72.16
2023-12-18T23:24:10.009Z,73.98
2023-12-18T23:26:39.937Z,73.64
2023-12-18T23:29:09.818Z,72.48
2023-12-18T23:31:38.717Z,71.12
2023-12-18T23:34:07.110Z,71.45
2023-12-18T23:36:35.500Z,71.17
2023-12-18T23:39:03.746Z,71.89
2023-12-18T23:41:32.333Z,72.16
2023-12-18T23:44:01.983Z,71.94
2023-12-18T23:46:30.215Z,70.92
2023-12-18T23:48:58.703Z,72.04
2023-12-18T23:51:27.295Z,71.37
2023-12-18T23:53:55.575Z,71.18
2023-12-18T23:56:24.066Z,69.95
2023-12-18T23:58:52.525Z,70.15
